LF7424 weather

Altisurface du Glacier Du Dome Du Gouter
Chamonix, Auvergne-Rhône-Alpes, France

Public forecast

Using degrees Celsius for public forecast. Weather courtesy of forecast.io.

Closest aviation weather report (METAR) to Altisurface du Glacier Du Dome Du Gouter

Closest report is Aosta Airport, 22.7 nm (42.0 km) ESE. Retrieved 2020/01/27 16:20 UTC (2 hours ago):

LIMW 271620Z AUTO 11006KT 9999 FEW089 SCT110 07/M02 Q1015

Closest aviation forecast (TAF) to Altisurface du Glacier Du Dome Du Gouter

Forecast is more than 6 hours old.

Closest forecast is Annecy-Haute-Savoie-Mont Blanc Airport, 31.5 nm (58.3 km) W. Retrieved 2020/01/27 09:00 UTC (9 hours ago):

TAF LFLP 270800Z 2709/2809 22002KT 2000 BR NSC TEMPO 2709/2710 0400 FG VV/// BECMG 2709/2712 CAVOK TEMPO 2716/2809 21012G25KT 4000 RA BKN020 OVC040